Chasetown, United Kingdom
Current Conditions -  °F | °C
As of 11:20 AM on Wednesday 26 Nov 2014 (Local Time) from EGBB Reporting Station
Haze Haze  
Wind Chill:   Ceiling: 300
Heat Index:   Visibility: 1.5mi
Dew Point:   Wind: 5mph
Humidity: 100%   Direction: 10°N
Pressure: 29.88"   Gusts: NA
Location:  52.67°N, 1.93°W
Report Text: EGBB 261120Z 01004KT 2400 BR OVC003 07/07 Q1012
Loading
Personal Weather Stations






























Interactive Weather Map New forecast layout! Learn more

10-Day Weather Forecast

Advertisements
Track Severe Weather on mobile